Time;durP1;ratioP1;P1;durP2;ratioP2;P2;SDS_P1;SDS_P2;PMS_P1;PMS_P2;Temp;Humidity;BMP_temperature;BMP_pressure;BME280_temperature;BME280_humidity;BME280_pressure;Samples;Min_cycle;Max_cycle;Signal;HPM_P1;HPM_P2
2022/05/31 00:00:48;;;;;;;1.60;1.30;;;16.70;2.80;;;;;;5018482;28;20494;-80
2022/05/31 00:03:17;;;;;;;3.97;1.70;;;16.60;3.20;;;;;;5022810;28;20452;-80
2022/05/31 00:05:45;;;;;;;1.83;1.50;;;16.60;3.60;;;;;;5023401;28;21281;-80
2022/05/31 00:08:13;;;;;;;2.43;1.57;;;16.60;3.90;;;;;;5017504;28;20463;-81
2022/05/31 00:10:43;;;;;;;1.63;1.30;;;16.50;4.80;;;;;;5020305;28;21035;-80
2022/05/31 00:13:11;;;;;;;1.73;1.63;;;16.50;4.20;;;;;;5018861;28;20456;-80
2022/05/31 00:15:40;;;;;;;1.53;1.43;;;16.50;4.10;;;;;;5018080;28;21020;-81
2022/05/31 00:18:08;;;;;;;1.70;1.60;;;16.40;5.30;;;;;;5020542;28;20470;-81
2022/05/31 00:20:36;;;;;;;1.73;1.30;;;16.40;3.20;;;;;;5017389;28;20487;-80
2022/05/31 00:23:05;;;;;;;2.17;1.63;;;16.30;4.20;;;;;;5023846;28;20445;-81
2022/05/31 00:25:33;;;;;;;2.17;1.50;;;16.20;3.50;;;;;;5022462;28;20457;-80
2022/05/31 00:28:03;;;;;;;1.77;1.50;;;16.20;4.40;;;;;;5023613;28;20451;-81
2022/05/31 00:30:31;;;;;;;2.30;1.47;;;16.20;3.90;;;;;;5017020;28;20472;-80
2022/05/31 00:33:01;;;;;;;2.10;1.50;;;16.20;4.10;;;;;;5027072;28;20918;-81
2022/05/31 00:35:33;;;;;;;1.80;1.67;;;16.20;3.80;;;;;;5025605;28;20457;-81
2022/05/31 00:38:02;;;;;;;1.87;1.40;;;16.10;3.30;;;;;;5019996;28;20503;-80
2022/05/31 00:40:31;;;;;;;1.67;1.57;;;16.00;2.20;;;;;;5020553;28;20520;-81
2022/05/31 00:43:04;;;;;;;1.77;1.63;;;16.00;2.40;;;;;;5012056;28;20959;-81
2022/05/31 00:45:38;;;;;;;1.50;1.40;;;16.00;2.70;;;;;;5018882;28;20452;-82
2022/05/31 00:48:15;;;;;;;1.47;1.37;;;15.90;3.00;;;;;;5020736;28;20518;-80
2022/05/31 00:50:46;;;;;;;1.40;1.30;;;15.90;2.70;;;;;;5018350;28;20475;-81
2022/05/31 00:53:19;;;;;;;1.50;1.40;;;15.90;2.50;;;;;;5019057;28;20486;-81
2022/05/31 00:55:50;;;;;;;1.43;1.33;;;15.80;3.00;;;;;;5017991;28;20460;-81
2022/05/31 00:58:24;;;;;;;1.83;1.50;;;15.80;2.70;;;;;;5014486;28;20504;-83
2022/05/31 01:00:52;;;;;;;1.67;1.57;;;15.70;1.60;;;;;;5013337;28;20488;-81
2022/05/31 01:03:23;;;;;;;1.80;1.70;;;15.70;3.20;;;;;;5015702;28;20527;-81
2022/05/31 01:05:51;;;;;;;3.00;1.90;;;15.70;2.50;;;;;;5023997;28;20466;-81
2022/05/31 01:08:20;;;;;;;3.47;1.53;;;15.60;3.50;;;;;;5021479;28;20471;-81
2022/05/31 01:10:48;;;;;;;1.47;1.37;;;15.60;3.50;;;;;;5021931;28;20476;-81
2022/05/31 01:13:18;;;;;;;2.50;1.80;;;15.60;2.60;;;;;;5016350;28;20465;-82
2022/05/31 01:15:50;;;;;;;2.10;1.40;;;15.60;1.50;;;;;;5016101;28;20464;-81
2022/05/31 01:18:18;;;;;;;2.33;1.60;;;15.50;3.30;;;;;;5019900;28;21004;-81
2022/05/31 01:20:48;;;;;;;1.80;1.33;;;15.50;3.50;;;;;;5019748;28;20481;-81
2022/05/31 01:23:18;;;;;;;1.90;1.60;;;15.50;2.80;;;;;;5014919;28;20449;-81
2022/05/31 01:26:13;;;;;;;1.70;1.60;;;15.50;3.20;;;;;;5017434;28;20448;-82
2022/05/31 01:28:55;;;;;;;1.60;1.50;;;15.50;2.20;;;;;;5023275;28;21011;-81
2022/05/31 01:31:29;;;;;;;2.40;1.40;;;15.40;2.40;;;;;;5016848;28;20491;-80
2022/05/31 01:34:02;;;;;;;5.57;2.80;;;15.40;3.70;;;;;;5022191;28;20466;-80
2022/05/31 01:36:37;;;;;;;2.47;1.37;;;15.40;3.70;;;;;;5016559;28;20472;-79
2022/05/31 01:39:08;;;;;;;1.40;1.30;;;15.40;3.40;;;;;;5024934;28;20447;-80
2022/05/31 01:41:45;;;;;;;1.63;1.53;;;15.40;3.80;;;;;;5013814;28;20561;-79
2022/05/31 01:44:18;;;;;;;1.93;1.77;;;15.30;5.20;;;;;;5007601;28;20458;-80
2022/05/31 01:46:50;;;;;;;1.67;1.40;;;15.30;4.40;;;;;;5016298;28;20450;-79
2022/05/31 01:49:18;;;;;;;1.20;1.10;;;15.30;4.30;;;;;;5017933;28;20456;-80
2022/05/31 01:51:48;;;;;;;2.30;1.30;;;15.30;4.90;;;;;;5013012;28;20459;-80
2022/05/31 01:54:19;;;;;;;1.70;1.30;;;15.30;5.00;;;;;;5018290;28;20460;-80
2022/05/31 01:56:52;;;;;;;1.40;1.30;;;15.30;5.40;;;;;;5018299;28;20515;-80
2022/05/31 01:59:20;;;;;;;1.73;1.63;;;15.20;5.40;;;;;;5015681;28;20456;-79
2022/05/31 02:01:49;;;;;;;1.40;1.30;;;15.30;6.10;;;;;;5022462;28;21010;-80
2022/05/31 02:04:18;;;;;;;1.97;1.50;;;15.30;7.10;;;;;;5014094;28;20468;-80
2022/05/31 02:07:10;;;;;;;2.37;1.30;;;15.30;6.00;;;;;;5023413;28;20464;-79
2022/05/31 02:09:36;;;;;;;1.50;1.40;;;15.30;6.10;;;;;;5014680;28;20482;-79
2022/05/31 02:12:05;;;;;;;2.80;1.20;;;15.30;6.70;;;;;;5020841;28;20460;-79
2022/05/31 02:14:33;;;;;;;2.23;1.40;;;15.30;6.70;;;;;;5022985;28;20978;-80
2022/05/31 02:17:01;;;;;;;2.50;1.50;;;15.30;7.20;;;;;;5017937;28;20452;-79
2022/05/31 02:19:30;;;;;;;1.97;1.20;;;15.30;7.20;;;;;;5020651;28;20469;-79
2022/05/31 02:22:01;;;;;;;2.10;1.73;;;15.30;7.40;;;;;;5016371;28;20462;-80
2022/05/31 02:24:30;;;;;;;2.20;1.77;;;15.20;6.80;;;;;;5020406;28;20456;-79
2022/05/31 02:26:59;;;;;;;1.90;1.57;;;15.20;7.40;;;;;;5019781;28;20467;-80
2022/05/31 02:29:29;;;;;;;1.77;1.23;;;15.10;5.70;;;;;;5014785;28;20800;-79
2022/05/31 02:31:59;;;;;;;1.37;1.27;;;15.10;6.30;;;;;;5023901;28;20464;-79
2022/05/31 02:34:31;;;;;;;1.90;1.27;;;15.00;6.10;;;;;;5022107;28;20877;-79
2022/05/31 02:37:01;;;;;;;3.80;1.83;;;15.00;6.50;;;;;;5026094;28;20451;-79
2022/05/31 02:39:29;;;;;;;1.57;1.47;;;15.00;8.00;;;;;;5022833;28;20489;-79
2022/05/31 02:41:58;;;;;;;1.50;1.40;;;15.00;8.10;;;;;;5019539;28;20456;-79
2022/05/31 02:44:27;;;;;;;2.17;1.70;;;15.00;7.20;;;;;;5027690;28;20451;-79
2022/05/31 02:46:55;;;;;;;1.80;1.60;;;14.80;6.40;;;;;;5022528;28;20995;-79
2022/05/31 02:49:23;;;;;;;2.90;1.30;;;14.80;6.70;;;;;;5026843;28;20827;-80
2022/05/31 02:51:51;;;;;;;2.43;1.43;;;14.80;7.70;;;;;;5021668;28;20837;-80
2022/05/31 02:54:22;;;;;;;1.63;1.53;;;14.80;7.00;;;;;;5021946;28;20489;-79
2022/05/31 02:56:50;;;;;;;1.83;1.63;;;14.80;7.60;;;;;;5023538;28;20473;-80
2022/05/31 02:59:18;;;;;;;2.27;1.60;;;14.70;8.10;;;;;;5025053;28;20485;-80
2022/05/31 03:01:47;;;;;;;1.70;1.60;;;14.70;8.00;;;;;;5024436;28;20470;-80
2022/05/31 03:04:16;;;;;;;1.80;1.70;;;14.70;6.50;;;;;;5029360;28;20498;-80
2022/05/31 03:06:45;;;;;;;3.00;1.43;;;14.70;7.90;;;;;;5023861;28;20448;-80
2022/05/31 03:09:13;;;;;;;1.67;1.33;;;14.70;7.90;;;;;;5025539;28;20568;-80
2022/05/31 03:11:47;;;;;;;2.33;1.77;;;14.70;8.60;;;;;;5028113;28;20457;-80
2022/05/31 03:14:21;;;;;;;1.33;1.23;;;14.60;7.40;;;;;;5022169;28;21044;-80
2022/05/31 03:16:53;;;;;;;1.77;1.60;;;14.60;8.10;;;;;;5021310;28;20470;-80
2022/05/31 03:19:27;;;;;;;1.60;1.47;;;14.60;7.60;;;;;;5025652;28;20516;-81
2022/05/31 03:21:59;;;;;;;1.60;1.50;;;14.60;7.40;;;;;;5021605;28;20460;-81
2022/05/31 03:24:34;;;;;;;1.30;1.20;;;14.50;7.40;;;;;;5024071;28;20552;-81
2022/05/31 03:27:07;;;;;;;1.83;1.50;;;14.50;7.30;;;;;;5028516;28;20527;-80
2022/05/31 03:29:38;;;;;;;1.90;1.80;;;14.40;7.20;;;;;;5018214;28;20501;-80
2022/05/31 03:32:08;;;;;;;2.00;1.70;;;14.40;7.50;;;;;;5016303;28;21040;-81
2022/05/31 03:34:37;;;;;;;2.13;1.27;;;14.40;8.10;;;;;;5013880;28;20677;-81
2022/05/31 03:37:06;;;;;;;1.57;1.47;;;14.50;9.60;;;;;;5020013;28;20451;-81
2022/05/31 03:39:34;;;;;;;1.87;1.30;;;14.50;10.60;;;;;;5016819;28;20485;-81
2022/05/31 03:42:06;;;;;;;1.80;1.60;;;14.50;10.50;;;;;;5021283;28;20458;-81
2022/05/31 03:44:34;;;;;;;1.70;1.60;;;14.50;9.30;;;;;;5014127;28;20460;-80
2022/05/31 03:47:03;;;;;;;4.73;2.00;;;14.50;9.10;;;;;;5018119;28;20999;-81
2022/05/31 03:49:33;;;;;;;2.90;2.10;;;14.50;9.70;;;;;;5028240;28;20825;-80
2022/05/31 03:52:02;;;;;;;1.67;1.50;;;14.50;9.50;;;;;;5011961;28;20451;-80
2022/05/31 03:54:31;;;;;;;2.43;2.17;;;14.40;9.00;;;;;;5019530;28;20479;-80
2022/05/31 03:56:59;;;;;;;2.10;1.90;;;14.20;8.40;;;;;;5015823;28;20470;-78
2022/05/31 03:59:29;;;;;;;2.10;1.90;;;14.30;9.40;;;;;;5010233;28;20490;-79
2022/05/31 04:01:57;;;;;;;1.83;1.73;;;14.30;21.60;;;;;;5016074;28;20470;-79
2022/05/31 04:04:25;;;;;;;1.60;1.50;;;14.40;11.00;;;;;;5015004;28;20462;-79
2022/05/31 04:06:54;;;;;;;8.80;3.67;;;14.50;11.90;;;;;;5011590;28;21485;-76
2022/05/31 04:09:22;;;;;;;10.47;3.80;;;14.50;12.30;;;;;;5030600;28;20458;-75
2022/05/31 04:11:50;;;;;;;3.00;2.50;;;14.50;12.70;;;;;;5025832;28;20459;-75
2022/05/31 04:14:18;;;;;;;2.80;1.80;;;14.50;12.90;;;;;;5017430;28;20490;-75
2022/05/31 04:16:48;;;;;;;1.50;1.40;;;14.40;11.60;;;;;;5018029;28;20466;-77
2022/05/31 04:19:16;;;;;;;1.30;1.20;;;14.40;11.20;;;;;;5015587;28;20477;-75
2022/05/31 04:21:45;;;;;;;1.73;1.23;;;14.30;11.00;;;;;;5023162;28;20523;-75
2022/05/31 04:24:13;;;;;;;2.20;1.40;;;14.20;12.00;;;;;;5016808;28;20465;-79
2022/05/31 04:26:43;;;;;;;1.90;1.40;;;14.10;12.30;;;;;;5012023;28;20449;-80
2022/05/31 04:29:11;;;;;;;1.27;1.17;;;14.20;12.40;;;;;;5019046;28;20447;-79
2022/05/31 04:31:40;;;;;;;2.20;2.00;;;14.20;14.30;;;;;;5017246;28;20464;-79
2022/05/31 04:34:09;;;;;;;1.30;1.20;;;14.30;13.40;;;;;;5016063;28;20506;-79
2022/05/31 04:36:37;;;;;;;1.90;1.40;;;14.30;13.90;;;;;;5016817;28;20462;-79
2022/05/31 04:39:06;;;;;;;1.50;1.30;;;14.30;14.00;;;;;;5018283;28;20488;-78
2022/05/31 04:41:34;;;;;;;2.10;1.77;;;14.30;14.20;;;;;;5020731;28;20487;-78
2022/05/31 04:44:04;;;;;;;1.73;1.50;;;14.40;15.40;;;;;;5018621;28;20455;-78
2022/05/31 04:46:34;;;;;;;1.70;1.60;;;14.50;14.30;;;;;;5028158;28;20453;-78
2022/05/31 04:49:04;;;;;;;2.43;1.70;;;14.50;14.70;;;;;;5019393;28;20553;-78
2022/05/31 04:51:34;;;;;;;1.63;1.53;;;14.50;15.90;;;;;;5014281;28;20472;-76
2022/05/31 04:54:03;;;;;;;1.70;1.60;;;14.50;17.00;;;;;;5012721;28;20452;-76
2022/05/31 04:56:32;;;;;;;2.10;1.80;;;14.60;17.00;;;;;;5011912;28;20796;-77
2022/05/31 04:59:01;;;;;;;2.13;1.80;;;14.60;18.30;;;;;;5016231;28;20488;-75
2022/05/31 05:01:29;;;;;;;4.00;1.90;;;14.60;19.30;;;;;;5015358;28;21002;-77
2022/05/31 05:03:58;;;;;;;3.73;2.13;;;14.70;20.40;;;;;;5021833;28;21062;-77
2022/05/31 05:06:31;;;;;;;2.30;1.83;;;14.70;20.40;;;;;;5022405;28;20447;-78
2022/05/31 05:09:01;;;;;;;2.43;2.10;;;14.80;20.90;;;;;;5022366;28;20451;-78
2022/05/31 05:11:31;;;;;;;2.27;2.07;;;14.80;20.70;;;;;;5019722;28;20467;-77
2022/05/31 05:14:00;;;;;;;1.93;1.70;;;14.90;21.10;;;;;;5015568;28;21152;-77
2022/05/31 05:16:28;;;;;;;3.10;2.10;;;14.90;21.20;;;;;;5016988;28;20468;-78
2022/05/31 05:18:57;;;;;;;4.57;2.40;;;14.90;20.20;;;;;;5013094;28;20454;-78
2022/05/31 05:21:26;;;;;;;2.27;1.80;;;14.90;33.60;;;;;;5025352;28;20489;-77
2022/05/31 05:23:54;;;;;;;2.67;2.00;;;15.00;22.10;;;;;;5018957;28;20455;-77
2022/05/31 05:26:24;;;;;;;3.90;1.70;;;15.00;21.80;;;;;;5026146;28;20558;-77
2022/05/31 05:31:40;;;;;;;2.80;2.10;;;15.10;24.10;;;;;;5007060;28;20506;-77
2022/05/31 05:34:09;;;;;;;2.70;2.03;;;15.10;25.80;;;;;;5010757;28;20452;-78
2022/05/31 05:36:38;;;;;;;1.90;1.50;;;15.20;25.40;;;;;;5028721;28;20468;-76
2022/05/31 05:39:10;;;;;;;2.20;2.00;;;15.20;26.40;;;;;;5011386;28;20518;-78
2022/05/31 05:41:41;;;;;;;4.20;1.70;;;15.30;26.60;;;;;;5007007;28;20997;-77
2022/05/31 05:44:10;;;;;;;2.73;1.77;;;15.30;26.20;;;;;;5017864;28;20462;-77
2022/05/31 05:46:38;;;;;;;2.93;1.63;;;15.40;26.90;;;;;;5021574;28;20459;-78
2022/05/31 05:49:07;;;;;;;2.60;2.20;;;15.40;27.70;;;;;;5017219;28;20452;-76
2022/05/31 05:51:35;;;;;;;3.93;1.77;;;15.40;29.60;;;;;;5019248;28;20484;-77
2022/05/31 05:54:03;;;;;;;4.07;1.80;;;15.40;30.00;;;;;;5011776;28;20468;-77
2022/05/31 05:56:32;;;;;;;2.40;1.90;;;15.50;28.90;;;;;;5011763;28;20463;-78
2022/05/31 05:59:01;;;;;;;2.90;2.20;;;15.60;29.40;;;;;;5014510;28;20466;-76
2022/05/31 06:01:35;;;;;;;3.60;2.40;;;15.60;31.20;;;;;;5016887;28;20481;-76
2022/05/31 06:04:30;;;;;;;2.63;2.43;;;15.70;30.90;;;;;;5020530;28;20459;-78
2022/05/31 06:07:03;;;;;;;3.67;2.70;;;15.80;31.60;;;;;;5018915;28;20540;-77
2022/05/31 06:09:35;;;;;;;3.30;2.10;;;15.80;30.40;;;;;;5015923;28;20461;-77
2022/05/31 06:12:08;;;;;;;4.93;3.60;;;15.90;31.40;;;;;;5029319;28;21047;-77
2022/05/31 06:14:41;;;;;;;3.47;2.20;;;15.90;31.90;;;;;;5026672;28;20547;-77
2022/05/31 06:17:15;;;;;;;3.87;1.80;;;15.90;30.90;;;;;;5022108;28;20514;-77
2022/05/31 06:19:47;;;;;;;1.50;1.40;;;15.90;30.70;;;;;;5018956;28;20513;-77
2022/05/31 06:22:15;;;;;;;2.23;1.73;;;16.00;31.50;;;;;;5019507;28;20471;-77
2022/05/31 06:24:44;;;;;;;1.73;1.57;;;16.10;33.10;;;;;;5021663;28;20471;-76
2022/05/31 06:27:12;;;;;;;2.00;1.43;;;16.10;33.10;;;;;;5023775;28;20468;-77
2022/05/31 06:29:42;;;;;;;3.10;1.97;;;16.00;31.60;;;;;;5015032;28;20483;-77
2022/05/31 06:32:10;;;;;;;1.40;1.30;;;15.90;30.90;;;;;;5017104;28;20460;-77
2022/05/31 06:34:40;;;;;;;2.93;1.20;;;15.80;30.00;;;;;;5019315;28;20460;-77
2022/05/31 06:37:11;;;;;;;2.10;1.20;;;15.90;32.70;;;;;;5014530;28;20477;-77
2022/05/31 06:39:41;;;;;;;1.10;1.00;;;16.00;32.20;;;;;;5015874;28;20493;-77
2022/05/31 06:42:11;;;;;;;1.30;1.20;;;16.10;32.10;;;;;;5021913;28;20463;-77
2022/05/31 06:44:43;;;;;;;7.93;1.33;;;16.30;33.70;;;;;;5021076;28;20462;-77
2022/05/31 06:47:12;;;;;;;1.17;1.00;;;16.40;35.00;;;;;;5012955;28;20464;-76
2022/05/31 06:49:41;;;;;;;1.27;1.03;;;16.50;35.00;;;;;;5013216;28;20485;-77
2022/05/31 06:57:47;;;;;;;1.23;1.13;;;16.70;36.20;;;;;;5013626;28;20465;-77
2022/05/31 07:00:19;;;;;;;1.23;1.10;;;16.80;40.20;;;;;;5018747;28;20489;-76
2022/05/31 07:02:48;;;;;;;1.27;1.17;;;16.90;36.50;;;;;;5013862;28;20469;-76
2022/05/31 07:05:16;;;;;;;1.10;1.00;;;17.00;39.40;;;;;;5015703;28;20465;-78
2022/05/31 07:07:44;;;;;;;1.30;1.20;;;17.10;38.80;;;;;;5014604;28;20449;-77
2022/05/31 07:10:13;;;;;;;1.73;1.10;;;17.20;41.40;;;;;;5016089;28;20462;-77
2022/05/31 07:12:42;;;;;;;1.00;1.00;;;17.30;39.90;;;;;;5015526;28;20511;-77
2022/05/31 07:15:11;;;;;;;1.23;1.07;;;17.40;40.90;;;;;;5019547;28;20468;-77
2022/05/31 07:17:41;;;;;;;1.43;0.93;;;17.40;43.80;;;;;;5013598;28;20456;-75
2022/05/31 07:20:10;;;;;;;2.70;1.03;;;17.50;42.30;;;;;;5014884;28;20542;-77
2022/05/31 07:22:39;;;;;;;1.13;1.03;;;17.60;41.60;;;;;;5017543;28;20966;-77
2022/05/31 07:25:09;;;;;;;1.40;1.30;;;17.60;44.10;;;;;;5014118;28;21008;-77
2022/05/31 07:27:37;;;;;;;1.20;1.10;;;17.50;40.90;;;;;;5022504;28;20474;-77
2022/05/31 07:30:06;;;;;;;1.00;1.00;;;17.50;43.80;;;;;;5015808;28;21314;-77
2022/05/31 07:32:34;;;;;;;1.13;0.87;;;17.60;41.00;;;;;;5016278;28;20975;-77
2022/05/31 07:35:24;;;;;;;1.33;0.80;;;17.60;40.10;;;;;;5012660;28;20457;-77
2022/05/31 07:37:52;;;;;;;1.40;1.03;;;17.70;43.00;;;;;;5010134;28;20499;-77
2022/05/31 07:40:21;;;;;;;2.00;1.07;;;17.70;41.40;;;;;;5014999;28;20544;-77
2022/05/31 07:42:49;;;;;;;1.03;0.90;;;17.80;44.30;;;;;;5015373;28;20514;-77
2022/05/31 07:45:18;;;;;;;1.73;1.00;;;17.90;47.00;;;;;;5021630;28;20478;-77
2022/05/31 07:47:46;;;;;;;1.33;1.10;;;18.00;45.70;;;;;;5019105;28;20462;-77
2022/05/31 07:50:14;;;;;;;1.93;1.00;;;18.20;47.00;;;;;;5019519;28;20484;-77
2022/05/31 07:52:44;;;;;;;1.00;0.70;;;18.20;46.60;;;;;;5018559;28;20464;-77
2022/05/31 07:55:12;;;;;;;1.13;1.03;;;18.20;46.20;;;;;;5010492;28;20494;-78
2022/05/31 08:00:26;;;;;;;1.73;1.63;;;18.30;47.80;;;;;;5017674;28;20834;-76
2022/05/31 08:02:56;;;;;;;1.63;1.00;;;18.30;46.90;;;;;;5018525;28;20466;-78
2022/05/31 08:05:24;;;;;;;0.90;0.90;;;18.30;47.50;;;;;;5023309;28;21003;-77
2022/05/31 08:07:54;;;;;;;1.17;0.90;;;18.40;48.20;;;;;;5025192;28;20465;-77
2022/05/31 08:10:40;;;;;;;0.90;0.90;;;18.40;46.40;;;;;;5020808;28;20500;-78
2022/05/31 08:13:08;;;;;;;0.80;0.80;;;18.40;46.20;;;;;;5021388;28;21240;-76
2022/05/31 08:15:37;;;;;;;1.13;1.03;;;18.40;46.40;;;;;;5011936;28;20544;-77
2022/05/31 08:18:05;;;;;;;1.00;0.90;;;18.40;46.10;;;;;;5020913;28;20811;-77
2022/05/31 08:20:34;;;;;;;0.97;0.90;;;18.50;46.40;;;;;;5023075;28;20486;-76
2022/05/31 08:23:03;;;;;;;1.10;1.00;;;18.50;47.90;;;;;;5024366;28;20467;-76
2022/05/31 08:25:33;;;;;;;0.90;0.90;;;18.50;50.20;;;;;;5022841;28;20468;-76
2022/05/31 08:28:02;;;;;;;1.37;0.93;;;18.60;49.70;;;;;;5015723;28;20459;-76
2022/05/31 08:30:31;;;;;;;1.10;1.00;;;18.70;50.60;;;;;;5016638;28;20490;-76
2022/05/31 08:33:00;;;;;;;1.13;0.90;;;18.70;49.50;;;;;;5017628;28;20506;-75
2022/05/31 08:35:28;;;;;;;1.50;1.00;;;18.70;49.50;;;;;;5013541;28;20449;-77
2022/05/31 08:38:18;;;;;;;1.37;1.10;;;18.80;55.30;;;;;;5011687;28;20829;-77
2022/05/31 08:41:05;;;;;;;1.10;1.00;;;18.90;53.70;;;;;;5010090;28;20476;-76
2022/05/31 08:43:51;;;;;;;0.93;0.83;;;18.90;52.70;;;;;;5022879;28;20451;-76
2022/05/31 08:46:30;;;;;;;1.97;0.90;;;19.00;50.60;;;;;;5016119;28;20453;-75
2022/05/31 08:49:01;;;;;;;1.23;1.10;;;19.10;54.20;;;;;;5013707;28;21270;-76
2022/05/31 08:51:55;;;;;;;2.67;2.07;;;19.20;54.80;;;;;;5025341;28;20468;-76
2022/05/31 08:57:40;;;;;;;1.10;1.10;;;19.30;56.90;;;;;;5014020;28;20461;-76
2022/05/31 09:00:17;;;;;;;0.80;0.80;;;19.40;59.50;;;;;;5015633;28;20484;-76
2022/05/31 09:02:50;;;;;;;1.00;1.00;;;19.50;62.20;;;;;;5018041;28;20498;-76
2022/05/31 09:05:28;;;;;;;1.33;1.07;;;19.50;59.10;;;;;;5016732;28;21072;-76
2022/05/31 09:08:01;;;;;;;1.07;0.97;;;19.70;58.80;;;;;;5026771;28;20539;-76
2022/05/31 09:10:39;;;;;;;1.20;1.10;;;19.70;52.80;;;;;;5017192;28;20472;-76
2022/05/31 09:13:15;;;;;;;1.40;1.00;;;19.70;53.50;;;;;;5011349;28;21155;-76
2022/05/31 09:15:50;;;;;;;1.07;0.93;;;19.70;55.40;;;;;;5018093;28;20955;-76
2022/05/31 09:18:23;;;;;;;1.83;1.10;;;19.80;54.90;;;;;;5014216;28;20459;-76
2022/05/31 09:20:54;;;;;;;0.93;0.93;;;19.80;54.10;;;;;;5014892;28;20480;-76
2022/05/31 09:23:26;;;;;;;2.40;1.20;;;19.90;59.40;;;;;;5014345;28;21011;-76
2022/05/31 09:26:09;;;;;;;1.20;1.10;;;20.00;59.90;;;;;;5015062;28;20462;-75
2022/05/31 09:28:45;;;;;;;1.20;1.10;;;20.00;60.60;;;;;;5012744;28;20475;-76
2022/05/31 09:31:28;;;;;;;3.03;1.17;;;20.10;59.10;;;;;;5007852;28;20572;-76
2022/05/31 09:34:13;;;;;;;1.63;1.53;;;20.10;57.60;;;;;;5013799;28;20440;-76
2022/05/31 09:36:45;;;;;;;1.13;1.00;;;20.10;59.40;;;;;;5010495;28;20461;-76
2022/05/31 09:39:23;;;;;;;2.33;1.40;;;20.10;64.50;;;;;;5016671;28;20469;-76
2022/05/31 09:42:00;;;;;;;1.30;1.20;;;20.20;63.20;;;;;;5015277;28;20545;-76
2022/05/31 09:44:37;;;;;;;1.77;1.40;;;20.30;61.70;;;;;;5019570;28;20491;-76
2022/05/31 09:47:15;;;;;;;1.37;1.27;;;20.20;60.90;;;;;;5021802;28;20534;-76
2022/05/31 09:49:46;;;;;;;3.73;1.30;;;20.30;59.40;;;;;;5022389;28;20479;-76
2022/05/31 09:52:21;;;;;;;1.40;1.30;;;20.30;60.20;;;;;;5015890;28;20448;-76
2022/05/31 09:57:58;;;;;;;3.27;1.60;;;20.40;60.00;;;;;;5017448;28;20457;-76
2022/05/31 10:00:27;;;;;;;4.40;1.60;;;20.40;62.10;;;;;;5019692;28;20460;-76
2022/05/31 10:03:03;;;;;;;1.40;1.17;;;20.50;59.80;;;;;;5023080;28;21401;-77
2022/05/31 10:05:32;;;;;;;1.47;1.17;;;20.50;56.20;;;;;;5017572;28;20972;-76
2022/05/31 10:08:01;;;;;;;2.30;1.00;;;20.50;58.10;;;;;;5012999;28;20835;-77
2022/05/31 10:10:33;;;;;;;2.43;1.10;;;20.60;57.90;;;;;;5021360;28;20511;-78
2022/05/31 10:13:08;;;;;;;1.20;1.10;;;20.70;56.10;;;;;;5017070;28;20465;-78
2022/05/31 10:15:50;;;;;;;1.50;1.20;;;20.70;59.00;;;;;;5022106;28;20478;-78
2022/05/31 10:18:28;;;;;;;1.10;0.97;;;20.80;58.50;;;;;;5023333;28;20454;-78
2022/05/31 10:20:58;;;;;;;1.67;1.10;;;20.80;55.40;;;;;;5022244;28;20476;-78
2022/05/31 10:23:34;;;;;;;1.33;1.00;;;20.80;57.20;;;;;;5028681;28;20494;-78
2022/05/31 10:26:03;;;;;;;0.83;0.80;;;20.70;55.00;;;;;;5027585;28;20451;-78
2022/05/31 10:28:37;;;;;;;2.30;1.07;;;20.70;52.50;;;;;;5025980;28;20468;-78
2022/05/31 10:31:19;;;;;;;1.10;1.00;;;20.70;53.20;;;;;;5028366;28;20652;-78
2022/05/31 10:33:54;;;;;;;1.23;0.90;;;20.70;54.10;;;;;;5028955;28;20453;-78
2022/05/31 10:36:25;;;;;;;2.90;0.90;;;20.80;52.10;;;;;;5026305;28;20436;-78
2022/05/31 10:38:54;;;;;;;1.43;0.93;;;20.80;57.90;;;;;;5015961;28;20453;-78
2022/05/31 10:41:28;;;;;;;1.10;1.00;;;20.80;65.00;;;;;;5024878;28;20464;-78
2022/05/31 10:44:29;;;;;;;1.93;1.20;;;20.90;69.00;;;;;;5029859;28;20452;-78
2022/05/31 10:47:03;;;;;;;1.90;1.30;;;20.90;71.80;;;;;;5029470;28;20463;-78
2022/05/31 10:49:33;;;;;;;1.30;1.20;;;21.00;73.80;;;;;;5030438;28;20464;-78
2022/05/31 10:52:09;;;;;;;1.30;1.10;;;21.00;77.30;;;;;;5025809;28;21130;-77
2022/05/31 10:55:05;;;;;;;1.10;1.00;;;21.10;80.10;;;;;;5024390;28;20983;-77
2022/05/31 10:57:48;;;;;;;1.60;1.20;;;21.20;78.50;;;;;;5029803;28;20469;-78
2022/05/31 11:00:21;;;;;;;1.30;1.10;;;21.20;74.40;;;;;;5017743;28;20474;-78
2022/05/31 11:03:16;;;;;;;1.10;1.10;;;21.20;74.20;;;;;;5019335;28;20501;-78
2022/05/31 11:05:54;;;;;;;1.07;0.80;;;21.30;73.50;;;;;;5028974;28;20531;-77
2022/05/31 11:11:33;;;;;;;0.97;0.97;;;21.30;74.50;;;;;;5019810;28;20526;-78
2022/05/31 11:14:16;;;;;;;1.33;1.10;;;21.40;92.00;;;;;;5029401;28;20451;-77
2022/05/31 11:16:54;;;;;;;1.27;0.93;;;21.50;75.80;;;;;;5029185;28;20447;-78
2022/05/31 11:19:40;;;;;;;1.07;1.07;;;21.50;77.30;;;;;;5029698;28;20459;-78
2022/05/31 11:22:26;;;;;;;1.20;1.10;;;21.50;78.30;;;;;;5029048;28;20479;-78
2022/05/31 11:25:14;;;;;;;2.07;1.03;;;21.60;75.10;;;;;;5017541;28;20467;-78
2022/05/31 11:27:51;;;;;;;1.40;1.17;;;21.60;76.10;;;;;;5029472;28;20450;-78
2022/05/31 11:30:23;;;;;;;0.97;0.90;;;21.70;71.00;;;;;;5022220;28;20490;-78
2022/05/31 11:33:19;;;;;;;1.20;1.10;;;21.80;71.80;;;;;;5016650;28;20448;-78
2022/05/31 11:36:04;;;;;;;2.23;1.17;;;21.70;70.40;;;;;;5028820;28;20464;-78
2022/05/31 11:38:43;;;;;;;2.13;1.37;;;21.80;70.90;;;;;;5029047;28;20456;-78
2022/05/31 11:41:23;;;;;;;1.40;1.10;;;21.90;69.10;;;;;;5024295;28;21079;-78
2022/05/31 11:44:22;;;;;;;2.60;0.90;;;21.90;69.50;;;;;;5025677;28;20616;-78
2022/05/31 11:47:00;;;;;;;0.93;0.90;;;21.80;69.10;;;;;;5025764;28;20533;-78
2022/05/31 11:49:36;;;;;;;1.73;1.00;;;21.90;70.70;;;;;;5029019;28;20453;-78
2022/05/31 11:52:18;;;;;;;1.33;1.23;;;22.00;71.20;;;;;;5029205;28;20998;-78
2022/05/31 11:55:29;;;;;;;1.40;0.90;;;22.00;68.50;;;;;;5014996;28;20997;-78
2022/05/31 11:58:07;;;;;;;1.90;1.10;;;22.10;68.20;;;;;;5028983;28;21181;-78
2022/05/31 12:00:48;;;;;;;1.93;1.83;;;22.10;70.40;;;;;;5027461;28;20486;-78
2022/05/31 12:03:22;;;;;;;0.83;0.83;;;22.20;90.70;;;;;;5017926;28;20508;-78
2022/05/31 12:05:59;;;;;;;1.30;1.20;;;22.20;69.30;;;;;;5025397;28;20455;-78
2022/05/31 12:08:35;;;;;;;3.23;1.10;;;22.30;67.60;;;;;;5028645;28;20487;-78
2022/05/31 12:11:11;;;;;;;1.10;1.00;;;22.20;65.70;;;;;;5029184;28;20472;-78
2022/05/31 12:13:44;;;;;;;0.80;0.80;;;22.20;64.70;;;;;;5028877;28;20991;-78
2022/05/31 12:16:14;;;;;;;1.27;0.80;;;22.20;66.40;;;;;;5018079;28;20455;-78
2022/05/31 12:18:52;;;;;;;1.20;1.00;;;22.20;66.70;;;;;;5028875;28;20460;-78
2022/05/31 12:21:29;;;;;;;1.03;1.03;;;22.10;63.20;;;;;;5024609;28;20904;-78
2022/05/31 12:24:06;;;;;;;0.90;0.90;;;22.10;62.70;;;;;;5027976;28;20472;-78
2022/05/31 12:26:39;;;;;;;1.00;1.00;;;22.10;65.10;;;;;;5019275;28;20464;-78
2022/05/31 12:29:16;;;;;;;2.37;1.13;;;22.20;68.30;;;;;;5022280;28;20467;-78
2022/05/31 12:31:44;;;;;;;1.10;1.10;;;22.20;66.80;;;;;;5028785;28;21033;-79
2022/05/31 12:34:44;;;;;;;1.20;1.10;;;22.30;67.20;;;;;;5028222;28;20467;-78
2022/05/31 12:37:15;;;;;;;1.13;1.07;;;22.30;66.60;;;;;;5012781;28;20970;-78
2022/05/31 12:39:46;;;;;;;1.97;1.00;;;22.30;66.20;;;;;;5027092;28;20468;-78
2022/05/31 12:42:48;;;;;;;0.90;0.90;;;22.30;65.90;;;;;;5028744;28;20455;-78
2022/05/31 12:45:24;;;;;;;1.10;1.00;;;22.30;64.60;;;;;;5027427;28;20475;-77
2022/05/31 12:47:55;;;;;;;1.20;1.10;;;22.30;62.70;;;;;;5025552;28;20472;-78
2022/05/31 12:50:46;;;;;;;1.13;0.90;;;22.30;61.40;;;;;;5028646;28;21062;-78
2022/05/31 12:53:23;;;;;;;2.03;1.00;;;22.40;61.90;;;;;;5013652;28;20465;-78
2022/05/31 12:55:57;;;;;;;0.90;0.90;;;22.40;61.40;;;;;;5023017;28;20546;-78
2022/05/31 12:58:50;;;;;;;0.97;0.97;;;22.50;63.20;;;;;;5025418;28;20535;-78
2022/05/31 13:01:38;;;;;;;2.23;1.10;;;22.50;63.40;;;;;;5015788;28;20487;-78
2022/05/31 13:04:20;;;;;;;1.03;0.90;;;22.50;59.00;;;;;;5025346;28;20488;-77
2022/05/31 13:07:11;;;;;;;0.90;0.90;;;22.50;58.70;;;;;;5020800;28;20457;-77
2022/05/31 13:09:43;;;;;;;0.80;0.80;;;22.60;62.20;;;;;;5016905;28;20466;-77
2022/05/31 13:20:56;;;;;;;1.10;1.00;;;22.60;60.00;;;;;;5014409;28;20472;-78
2022/05/31 13:23:28;;;;;;;1.00;0.90;;;22.70;62.20;;;;;;5020854;28;20572;-78
2022/05/31 13:26:02;;;;;;;1.00;0.83;;;22.70;63.40;;;;;;5021710;28;20464;-79
2022/05/31 13:28:32;;;;;;;2.60;0.90;;;22.80;79.10;;;;;;5022833;28;21342;-79
2022/05/31 13:31:03;;;;;;;1.63;1.00;;;22.80;62.00;;;;;;5025222;28;20472;-77
2022/05/31 13:33:32;;;;;;;1.30;0.90;;;22.80;62.50;;;;;;5013908;28;20987;-78
2022/05/31 13:36:03;;;;;;;1.80;0.90;;;22.90;60.90;;;;;;5022845;28;20535;-78
2022/05/31 13:38:35;;;;;;;1.07;1.00;;;22.80;59.90;;;;;;5026191;28;20448;-78
2022/05/31 13:41:09;;;;;;;1.17;0.80;;;22.80;61.50;;;;;;5024020;28;20490;-78
2022/05/31 13:43:41;;;;;;;0.80;0.80;;;22.80;62.90;;;;;;5024436;28;20541;-79
2022/05/31 13:46:17;;;;;;;1.83;1.20;;;22.90;61.40;;;;;;5025271;28;20456;-79
2022/05/31 13:48:52;;;;;;;1.40;1.10;;;22.90;60.00;;;;;;5025968;28;20534;-78